To NAV CANADA Home Page Login to a new session Search on AWWS site Feedback and Comments Disclaimer Vers la page française équivalente Tips FAQ What's new on the site To the Forecasts and Observations / NOTAM section To "File a Flight Plan" website Publications and other links Update of the User's profile FIC Telephone Numbers My Weather Data Folder Route Weather Data Regional Weather Data Local Weather Data To the Forecasts and Observations / NOTAM section
Request Generated 04/19/2015 at 01:01:30 UTC . Weather information available at that time is displayed.

METAR/TAF

LA RONGE/LA RONGE (BARBER FIELD)/SK    

SPECI CYVC 190042Z 34008KT 15SM -RA OVC012 04/03 A3000 RMK SC8
SLP176=
METAR CYVC 190000Z 35009KT 15SM -RA BKN006 OVC030 05/03 A2998 RMK
ST7SC1 CIG RAG SLP169=
METAR CYVC 182300Z 36007KT 8SM -RA BR BKN006 OVC030 05/04 A2995 RMK
ST6SC2 CIG RAG SLP160=
METAR CYVC 182200Z 27004KT 5SM -RA BR BKN005 OVC030 05/05 A2992 RMK
ST6SC2 CIG RAG SLP150=

TAF CYVC 190040Z 1901/1913 35010KT 4SM -RA BR BKN005 OVC020 TEMPO
1901/1904 P6SM -RA FEW005 OVC020
FM190400 35010KT P6SM SCT010 BKN030 TEMPO 1904/1909 BKN010 OVC030
FM190900 35008KT P6SM FEW010
RMK NXT FCST BY 190700Z=
Your time UTC time
Weather data provided by Environment Canada and NAV CANADA